Time;durP1;ratioP1;P1;durP2;ratioP2;P2;SDS_P1;SDS_P2;PMS_P1;PMS_P2;Temp;Humidity;BMP_temperature;BMP_pressure;BME280_temperature;BME280_humidity;BME280_pressure;Samples;Min_cycle;Max_cycle;Signal;HPM_P1;HPM_P2
2022/12/04 00:01:27;;;;;;;119.00;57.70;;;;;;;2.57;78.62;100846.55;2214236;80;27595;-67
2022/12/04 00:04:29;;;;;;;126.40;58.70;;;;;;;2.60;78.66;100840.38;2214098;80;28766;-67
2022/12/04 00:07:30;;;;;;;124.45;61.42;;;;;;;2.57;78.54;100850.52;2214143;80;31010;-67
2022/12/04 00:10:31;;;;;;;127.27;58.50;;;;;;;2.56;78.63;100853.63;2214103;80;33747;-66
2022/12/04 00:13:34;;;;;;;124.90;59.25;;;;;;;2.55;78.63;100853.65;2214462;80;29037;-66
2022/12/04 00:16:35;;;;;;;124.58;58.48;;;;;;;2.56;78.64;100854.09;2214296;80;27709;-67
2022/12/04 00:19:36;;;;;;;127.00;59.95;;;;;;;2.56;78.69;100853.63;2214108;80;28673;-67
2022/12/04 00:22:37;;;;;;;120.15;56.33;;;;;;;2.58;78.67;100863.75;2213562;80;31098;-68
2022/12/04 00:25:39;;;;;;;123.28;58.52;;;;;;;2.60;78.71;100864.19;2214255;80;32933;-67
2022/12/04 00:28:41;;;;;;;119.15;56.90;;;;;;;2.67;78.86;100863.23;2214197;80;29005;-68
2022/12/04 00:31:42;;;;;;;122.25;56.13;;;;;;;2.71;78.76;100850.42;2217203;80;27653;-67
2022/12/04 00:34:44;;;;;;;115.37;56.55;;;;;;;2.75;78.62;100849.52;2218584;80;28747;-69
2022/12/04 00:37:45;;;;;;;115.25;54.98;;;;;;;2.70;78.48;100846.91;2218692;80;31800;-68
2022/12/04 00:40:50;;;;;;;115.57;55.55;;;;;;;2.71;78.59;100838.52;2218524;80;32901;-67
2022/12/04 00:43:52;;;;;;;111.35;54.88;;;;;;;2.70;78.48;100845.59;2218506;80;29877;-68
2022/12/04 00:46:53;;;;;;;103.87;52.93;;;;;;;2.71;78.50;100854.39;2218797;80;27712;-67
2022/12/04 00:49:54;;;;;;;101.75;51.90;;;;;;;2.70;78.51;100842.05;2218346;80;28985;-64
2022/12/04 00:52:56;;;;;;;114.92;55.28;;;;;;;2.70;78.47;100846.02;2218424;80;31056;-67
2022/12/04 00:55:58;;;;;;;114.40;54.73;;;;;;;2.71;78.59;100840.73;2218438;80;33758;-69
2022/12/04 00:59:00;;;;;;;116.80;55.05;;;;;;;2.75;78.51;100837.61;2218413;80;29811;-65
2022/12/04 01:02:02;;;;;;;114.47;56.68;;;;;;;2.76;78.50;100834.08;2218544;80;27741;-65
2022/12/04 01:05:07;;;;;;;106.55;52.95;;;;;;;2.73;78.40;100834.95;2218560;80;27985;-66
2022/12/04 01:08:09;;;;;;;109.72;53.00;;;;;;;2.73;78.51;100829.66;2218600;80;31785;-65
2022/12/04 01:11:11;;;;;;;103.45;50.52;;;;;;;2.76;78.45;100826.56;2218536;80;33411;-66
2022/12/04 01:14:12;;;;;;;105.58;51.50;;;;;;;2.71;78.40;100820.00;2218569;80;29805;-65
2022/12/04 01:17:13;;;;;;;101.35;48.28;;;;;;;2.70;78.45;100814.27;2218805;80;28010;-66
2022/12/04 01:20:16;;;;;;;102.95;52.48;;;;;;;2.70;78.47;100819.56;2218384;80;28628;-65
2022/12/04 01:23:19;;;;;;;106.30;53.17;;;;;;;2.67;78.48;100826.20;2180125;81;32030;-64
2022/12/04 01:26:20;;;;;;;102.72;51.08;;;;;;;2.64;78.51;100817.85;2179993;81;32974;-66
2022/12/04 01:29:22;;;;;;;106.52;50.90;;;;;;;2.64;78.55;100813.02;2179837;81;29773;-63
2022/12/04 01:32:23;;;;;;;106.92;51.28;;;;;;;2.61;78.55;100805.97;2175954;81;27699;-66
2022/12/04 01:35:24;;;;;;;105.55;54.20;;;;;;;2.60;78.63;100798.92;2175722;81;29088;-67
2022/12/04 01:38:27;;;;;;;104.60;52.48;;;;;;;2.61;78.63;100805.11;2175620;81;31843;-67
2022/12/04 01:41:30;;;;;;;113.57;55.67;;;;;;;2.62;78.68;100802.90;2175469;81;33002;-68
2022/12/04 01:44:32;;;;;;;84.93;40.37;;;;;;;2.66;78.75;100798.88;2175796;81;29237;-68
2022/12/04 01:47:33;;;;;;;105.58;53.25;;;;;;;2.66;78.70;100794.91;2175460;81;28250;-67
2022/12/04 01:50:35;;;;;;;111.35;52.90;;;;;;;2.67;78.73;100788.73;2179539;80;29460;-67
2022/12/04 01:53:40;;;;;;;111.80;53.02;;;;;;;2.63;78.58;100786.14;2176702;80;31053;-68
2022/12/04 01:56:50;;;;;;;106.87;52.40;;;;;;;2.60;78.52;100790.13;2174321;81;33727;-67
2022/12/04 02:00:05;;;;;;;109.03;54.23;;;;;;;2.54;78.46;100790.60;2174339;81;29008;-67
2022/12/04 02:03:07;;;;;;;107.12;51.00;;;;;;;2.49;78.50;100793.72;2174259;81;27711;-67
2022/12/04 02:06:08;;;;;;;111.62;54.75;;;;;;;2.40;78.48;100792.03;2174218;81;28621;-67
2022/12/04 02:09:09;;;;;;;113.68;54.73;;;;;;;2.31;78.48;100789.47;2174309;81;31824;-67
2022/12/04 02:12:31;;;;;;;115.52;55.25;;;;;;;2.26;78.62;100780.26;2174173;81;33722;-67
2022/12/04 02:15:58;;;;;;;109.05;53.52;;;;;;;2.20;78.60;100789.55;2174315;81;29029;-68
2022/12/04 02:19:20;;;;;;;113.17;53.87;;;;;;;2.16;78.60;100787.80;2174454;81;27716;-68
2022/12/04 02:22:49;;;;;;;109.52;54.75;;;;;;;2.10;78.50;100787.41;2205268;80;28653;-69
2022/12/04 02:26:24;;;;;;;102.85;52.50;;;;;;;2.06;78.44;100791.41;2214190;80;31025;-68
2022/12/04 02:29:49;;;;;;;110.10;54.07;;;;;;;2.01;78.40;100783.95;2214353;80;33755;-68
2022/12/04 02:33:08;;;;;;;112.00;54.37;;;;;;;1.97;78.34;100783.09;2214050;80;30195;-64
2022/12/04 02:36:17;;;;;;;115.22;55.30;;;;;;;1.92;78.39;100785.77;2214148;80;28082;-66
2022/12/04 02:39:24;;;;;;;108.50;54.73;;;;;;;1.90;78.49;100789.33;2214225;80;28107;-67
2022/12/04 02:42:39;;;;;;;122.72;57.40;;;;;;;1.90;78.66;100779.62;2214287;80;31055;-68
2022/12/04 02:45:59;;;;;;;120.15;60.20;;;;;;;1.93;78.86;100769.46;2213553;80;33828;-67
2022/12/04 02:49:04;;;;;;;116.08;55.40;;;;;;;1.94;79.01;100777.40;2214336;80;29014;-67
2022/12/04 02:52:12;;;;;;;109.40;55.23;;;;;;;1.98;79.17;100790.14;2214340;80;27680;-67
2022/12/04 02:55:21;;;;;;;115.40;57.00;;;;;;;2.03;79.22;100790.10;2214313;80;28647;-70
2022/12/04 02:58:33;;;;;;;125.22;61.30;;;;;;;2.07;79.26;100786.56;2214276;80;31897;-67
2022/12/04 03:01:39;;;;;;;115.42;60.10;;;;;;;2.12;79.29;100787.41;2212991;80;33780;-66
2022/12/04 03:04:41;;;;;;;118.42;58.50;;;;;;;2.17;79.28;100786.91;2214516;80;29026;-67
2022/12/04 03:07:53;;;;;;;118.42;59.65;;;;;;;2.18;79.22;100799.24;2214355;80;27836;-69
2022/12/04 03:10:59;;;;;;;119.55;58.33;;;;;;;2.18;79.05;100795.74;2214249;80;28642;-67
2022/12/04 03:14:23;;;;;;;109.52;56.18;;;;;;;2.16;78.95;100785.62;2214279;80;31043;-67
2022/12/04 03:17:29;;;;;;;102.25;53.68;;;;;;;2.13;78.85;100782.56;2214207;80;33758;-68
2022/12/04 03:20:32;;;;;;;121.70;58.73;;;;;;;2.07;78.81;100775.98;2131552;83;29804;-67
2022/12/04 03:23:45;;;;;;;111.85;57.85;;;;;;;2.04;78.93;100779.97;2110209;83;27763;-68
2022/12/04 03:26:58;;;;;;;110.75;57.27;;;;;;;2.00;79.00;100783.51;2138199;83;28764;-66
2022/12/04 03:30:14;;;;;;;114.85;55.35;;;;;;;1.97;78.96;100785.31;2138073;83;31066;-67
2022/12/04 03:33:22;;;;;;;108.97;54.63;;;;;;;1.96;78.90;100782.23;2122264;82;32968;-68
2022/12/04 03:36:33;;;;;;;110.42;53.92;;;;;;;1.94;78.86;100785.75;2128585;83;29082;-69
2022/12/04 03:40:00;;;;;;;104.45;53.65;;;;;;;1.91;78.77;100784.44;2128646;83;27707;-69
2022/12/04 03:43:24;;;;;;;115.60;57.62;;;;;;;1.87;78.74;100788.88;2128237;83;29496;-68
2022/12/04 03:46:37;;;;;;;109.22;54.75;;;;;;;1.82;78.67;100781.45;2128199;83;32414;-69
2022/12/04 03:49:49;;;;;;;110.65;56.00;;;;;;;1.77;78.65;100784.09;2128640;83;32468;-69
2022/12/04 03:53:04;;;;;;;103.50;54.58;;;;;;;1.75;78.65;100790.27;2128735;83;29871;-67
2022/12/04 03:56:22;;;;;;;114.70;58.50;;;;;;;1.74;78.64;100776.63;2126304;83;27642;-68
2022/12/04 03:59:28;;;;;;;105.43;54.40;;;;;;;1.72;78.74;100779.30;2128664;83;28667;-68
2022/12/04 04:02:35;;;;;;;105.05;53.02;;;;;;;1.67;78.64;100775.79;2127957;83;31043;-67
2022/12/04 04:05:42;;;;;;;110.72;52.48;;;;;;;1.68;78.63;100777.55;2128478;83;32947;-68
2022/12/04 04:08:47;;;;;;;102.32;52.10;;;;;;;1.66;78.65;100771.39;2128624;83;29794;-68
2022/12/04 04:11:56;;;;;;;108.00;53.28;;;;;;;1.66;78.68;100774.03;2127702;83;27618;-68
2022/12/04 04:25:17;;;;;;;116.85;57.00;;;;;;;1.73;79.01;100763.88;2109065;84;29316;-65
2022/12/04 04:28:40;;;;;;;114.95;55.08;;;;;;;1.74;79.28;100756.36;2109468;84;27634;-68
2022/12/04 04:32:02;;;;;;;113.25;57.27;;;;;;;1.78;79.33;100755.47;2114072;83;28670;-68
2022/12/04 04:35:27;;;;;;;105.05;53.48;;;;;;;1.83;79.50;100756.75;2185606;81;31425;-66
2022/12/04 04:38:33;;;;;;;110.88;54.10;;;;;;;1.87;79.69;100754.98;2185927;81;33176;-67
2022/12/04 04:41:52;;;;;;;111.95;56.00;;;;;;;1.90;79.78;100749.69;2162099;81;28492;-67
2022/12/04 04:45:23;;;;;;;107.50;54.05;;;;;;;1.95;79.85;100746.13;2185920;81;28171;-66
2022/12/04 04:48:35;;;;;;;112.12;55.48;;;;;;;2.00;79.99;100745.19;2184552;81;29890;-64
2022/12/04 04:51:36;;;;;;;105.70;52.45;;;;;;;2.03;80.01;100739.47;2185769;81;31003;-63
2022/12/04 04:54:38;;;;;;;104.78;53.48;;;;;;;2.05;80.03;100744.73;2185159;81;33393;-67
2022/12/04 04:57:39;;;;;;;102.85;54.45;;;;;;;2.07;80.06;100742.95;2185635;81;29024;-67
2022/12/04 05:01:02;;;;;;;92.20;50.12;;;;;;;2.09;80.05;100746.01;2185705;81;28289;-64
2022/12/04 05:04:05;;;;;;;101.82;51.08;;;;;;;2.10;80.07;100741.62;2112128;84;28699;-65
2022/12/04 05:07:06;;;;;;;96.70;51.20;;;;;;;2.10;80.07;100744.26;2112098;83;31013;-65
2022/12/04 05:10:09;;;;;;;98.72;51.65;;;;;;;2.10;80.07;100745.58;2112263;84;32933;-66
2022/12/04 05:13:12;;;;;;;105.03;53.17;;;;;;;2.11;80.10;100746.02;2112445;83;29016;-67
2022/12/04 05:16:14;;;;;;;97.53;53.40;;;;;;;2.14;80.18;100746.00;2104853;84;27610;-68
2022/12/04 05:22:37;;;;;;;97.82;49.95;;;;;;;2.22;80.25;100744.16;2104634;84;32233;-69
2022/12/04 05:25:38;;;;;;;103.17;52.73;;;;;;;2.25;80.25;100741.92;2104897;84;33014;-69
2022/12/04 05:28:41;;;;;;;97.62;50.70;;;;;;;2.27;80.21;100741.47;2104948;84;29048;-69
2022/12/04 05:31:42;;;;;;;94.37;50.63;;;;;;;2.28;80.25;100740.16;2104820;83;27829;-68
2022/12/04 05:34:45;;;;;;;104.35;53.38;;;;;;;2.30;80.19;100751.16;2106282;84;29469;-68
2022/12/04 05:37:46;;;;;;;109.10;53.65;;;;;;;2.32;80.24;100752.89;2119593;84;32017;-68
2022/12/04 05:40:48;;;;;;;94.52;50.78;;;;;;;2.34;80.21;100750.22;2119933;83;33617;-68
2022/12/04 05:43:49;;;;;;;96.70;50.05;;;;;;;2.39;80.20;100757.68;2120020;83;29018;-69
2022/12/04 05:46:50;;;;;;;96.17;50.45;;;;;;;2.42;80.21;100756.34;2142507;83;27732;-67
2022/12/04 05:49:51;;;;;;;102.30;50.12;;;;;;;2.46;80.22;100753.21;2142550;82;28101;-69
2022/12/04 05:52:52;;;;;;;101.07;52.88;;;;;;;2.47;80.21;100743.97;2142530;83;31025;-67
2022/12/04 05:55:59;;;;;;;101.78;52.08;;;;;;;2.49;80.24;100747.91;2142652;82;32933;-67
2022/12/04 05:59:00;;;;;;;105.50;55.25;;;;;;;2.53;80.29;100754.92;2142440;83;29812;-69
2022/12/04 06:02:01;;;;;;;105.40;51.95;;;;;;;2.57;80.39;100760.59;2142552;82;27693;-70
2022/12/04 06:05:03;;;;;;;98.35;53.05;;;;;;;2.62;80.43;100760.58;2142552;83;28627;-67
2022/12/04 06:08:04;;;;;;;103.00;52.78;;;;;;;2.67;80.44;100760.95;2142539;82;31828;-68
2022/12/04 06:11:12;;;;;;;97.95;51.42;;;;;;;2.70;80.38;100759.61;2142560;83;32963;-70
2022/12/04 06:14:15;;;;;;;97.97;51.02;;;;;;;2.73;80.37;100754.73;2142881;83;29040;-70
2022/12/04 06:17:16;;;;;;;104.97;55.35;;;;;;;2.78;80.40;100759.53;2144024;82;27686;-70
2022/12/04 06:20:18;;;;;;;105.58;53.63;;;;;;;2.81;80.38;100768.77;2144115;82;28073;-69
2022/12/04 06:23:19;;;;;;;102.47;54.20;;;;;;;2.83;80.34;100777.55;2144109;82;31009;-68
2022/12/04 06:26:21;;;;;;;104.43;53.48;;;;;;;2.85;80.25;100774.44;2144063;82;33719;-68
2022/12/04 06:29:22;;;;;;;101.07;53.02;;;;;;;2.86;80.17;100780.16;2143882;83;29827;-70
2022/12/04 06:32:23;;;;;;;171.98;100.55;;;;;;;2.86;80.07;100782.81;2144847;82;27679;-69
2022/12/04 06:35:24;;;;;;;152.10;88.65;;;;;;;2.84;80.02;100779.76;2148558;82;28647;-69
2022/12/04 06:38:27;;;;;;;164.25;104.35;;;;;;;2.82;80.04;100786.83;2148064;82;30490;-68
2022/12/04 06:41:28;;;;;;;147.78;91.40;;;;;;;2.81;79.98;100791.69;2148152;82;33856;-70
2022/12/04 06:44:29;;;;;;;142.70;80.87;;;;;;;2.81;80.07;100790.37;2148474;82;29003;-70
2022/12/04 06:47:31;;;;;;;132.45;78.65;;;;;;;2.82;80.07;100791.66;2148593;82;27526;-69
2022/12/04 06:50:32;;;;;;;125.45;69.97;;;;;;;2.83;80.06;100789.45;2117464;82;28627;-70
2022/12/04 06:53:34;;;;;;;124.78;68.50;;;;;;;2.86;80.14;100794.72;2148445;82;31053;-69
2022/12/04 06:56:35;;;;;;;116.60;65.10;;;;;;;2.92;80.25;100796.42;2148430;82;33759;-68
2022/12/04 06:59:36;;;;;;;109.83;58.87;;;;;;;2.97;80.25;100797.27;2148369;82;29046;-68
2022/12/04 07:02:38;;;;;;;101.95;53.05;;;;;;;3.00;80.16;100795.91;2148569;82;27652;-68
2022/12/04 07:05:39;;;;;;;97.90;52.03;;;;;;;3.02;80.15;100792.80;2148508;82;29818;-69
2022/12/04 07:08:42;;;;;;;100.60;54.80;;;;;;;3.05;80.03;100799.83;2148263;82;31007;-68
2022/12/04 07:11:44;;;;;;;100.50;53.70;;;;;;;3.07;80.08;100799.80;2141540;82;32954;-69
2022/12/04 07:14:46;;;;;;;103.42;55.78;;;;;;;3.09;80.04;100800.66;2110161;84;29024;-65
2022/12/04 07:17:47;;;;;;;98.15;53.85;;;;;;;3.10;80.02;100794.05;2110339;84;27555;-68
2022/12/04 07:20:48;;;;;;;101.65;56.18;;;;;;;3.10;79.99;100786.53;2110263;84;28633;-67
2022/12/04 07:23:56;;;;;;;101.58;51.33;;;;;;;3.12;80.06;100780.78;2110276;84;31015;-70
2022/12/04 07:26:57;;;;;;;102.45;57.60;;;;;;;3.17;80.14;100785.59;2110266;84;32976;-68
2022/12/04 07:29:58;;;;;;;88.72;49.25;;;;;;;3.22;80.08;100778.91;2110805;84;29013;-68
2022/12/04 07:32:59;;;;;;;91.12;49.05;;;;;;;3.24;80.00;100772.69;2119550;83;27737;-69
2022/12/04 07:36:03;;;;;;;85.50;45.58;;;;;;;3.26;79.93;100772.23;2142540;83;29523;-69
2022/12/04 07:39:05;;;;;;;88.97;50.05;;;;;;;3.28;79.96;100774.42;2142532;82;31849;-67
2022/12/04 07:42:06;;;;;;;86.30;48.08;;;;;;;3.33;79.94;100779.22;2142482;83;33769;-63
2022/12/04 07:45:09;;;;;;;96.60;50.90;;;;;;;3.39;79.96;100778.73;2142607;83;29006;-69
2022/12/04 07:48:10;;;;;;;97.45;53.90;;;;;;;3.44;79.84;100776.45;2142655;83;27709;-68
2022/12/04 07:51:16;;;;;;;100.67;54.30;;;;;;;3.46;79.84;100779.06;2142487;83;29473;-68
2022/12/04 07:54:17;;;;;;;95.35;51.18;;;;;;;3.49;79.72;100789.16;2142533;83;31029;-68
2022/12/04 07:57:18;;;;;;;99.52;51.48;;;;;;;3.54;79.80;100795.75;2142546;83;32368;-63
2022/12/04 08:00:19;;;;;;;97.30;51.92;;;;;;;3.56;79.75;100792.61;2117632;83;29817;-67
2022/12/04 08:03:21;;;;;;;97.30;52.70;;;;;;;3.59;79.75;100799.66;2142537;82;28322;-67
2022/12/04 08:06:25;;;;;;;95.62;50.85;;;;;;;3.62;79.78;100792.54;2142538;83;28647;-68
2022/12/04 08:09:26;;;;;;;99.47;53.78;;;;;;;3.69;79.70;100787.17;2142423;83;31083;-68
2022/12/04 08:12:28;;;;;;;91.87;51.68;;;;;;;3.71;79.49;100785.38;2142313;82;33388;-66
2022/12/04 08:15:29;;;;;;;100.40;55.78;;;;;;;3.69;79.37;100784.52;2142469;83;29854;-65
2022/12/04 08:18:30;;;;;;;96.82;51.70;;;;;;;3.69;79.54;100784.06;2142595;83;27641;-66
2022/12/04 08:21:32;;;;;;;104.67;55.45;;;;;;;3.72;79.52;100795.95;2142505;82;29453;-64
2022/12/04 08:24:33;;;;;;;97.27;52.67;;;;;;;3.78;79.57;100785.71;2142471;83;30481;-64
2022/12/04 08:27:35;;;;;;;96.28;52.05;;;;;;;3.82;79.29;100788.75;2117571;83;33785;-65
2022/12/04 08:30:36;;;;;;;92.40;51.95;;;;;;;3.82;79.29;100788.75;2142523;82;29847;-66
2022/12/04 08:33:37;;;;;;;95.53;51.40;;;;;;;3.89;79.33;100789.54;2146051;82;27650;-64
2022/12/04 08:36:39;;;;;;;93.97;50.95;;;;;;;3.95;79.37;100786.81;2154095;82;29498;-66
2022/12/04 08:39:40;;;;;;;92.95;50.65;;;;;;;4.05;79.26;100790.22;2154340;82;31015;-64
2022/12/04 08:42:41;;;;;;;89.70;50.40;;;;;;;4.10;79.15;100788.34;2208960;80;32989;-64
2022/12/04 08:45:42;;;;;;;106.52;55.12;;;;;;;4.14;78.97;100791.39;2208834;80;29798;-66
2022/12/04 08:48:44;;;;;;;98.00;52.50;;;;;;;4.20;79.16;100790.41;2209114;80;27741;-66
2022/12/04 08:51:46;;;;;;;93.92;51.83;;;;;;;4.31;79.20;100788.92;2209278;80;28974;-67
2022/12/04 08:54:50;;;;;;;89.37;50.20;;;;;;;4.44;79.16;100796.25;2208865;80;31044;-67
2022/12/04 08:57:51;;;;;;;86.85;47.83;;;;;;;4.57;79.10;100796.46;2208828;80;32959;-67
2022/12/04 09:00:53;;;;;;;80.53;46.23;;;;;;;4.68;78.73;100798.94;2206438;80;29024;-66
2022/12/04 09:03:54;;;;;;;88.35;47.38;;;;;;;4.70;78.44;100792.69;2159162;81;27694;-65
2022/12/04 09:06:56;;;;;;;89.28;51.08;;;;;;;4.71;78.36;100800.22;2141779;82;28745;-67
2022/12/04 09:09:59;;;;;;;90.25;50.88;;;;;;;4.81;78.71;100812.41;2142886;83;28213;-69
2022/12/04 09:13:00;;;;;;;92.37;51.02;;;;;;;4.92;78.68;100806.02;2144647;83;32975;-68
2022/12/04 09:16:09;;;;;;;84.10;50.17;;;;;;;5.00;78.57;100801.47;2144816;83;29050;-67
2022/12/04 09:19:10;;;;;;;88.33;49.70;;;;;;;5.10;78.40;100793.74;2144503;83;27710;-68
2022/12/04 09:22:11;;;;;;;109.07;57.25;;;;;;;5.17;78.23;100787.42;2144553;83;28618;-69
2022/12/04 09:25:12;;;;;;;86.15;49.27;;;;;;;5.28;78.12;100782.34;2144682;83;31036;-68
2022/12/04 09:28:14;;;;;;;79.97;45.95;;;;;;;5.42;78.22;100788.24;2144597;83;32990;-68
2022/12/04 09:31:16;;;;;;;86.57;45.60;;;;;;;5.59;77.85;100789.67;2131703;83;29011;-69
2022/12/04 09:34:17;;;;;;;78.33;42.85;;;;;;;5.72;77.52;100784.52;2108128;84;27648;-68
2022/12/04 09:37:18;;;;;;;67.85;39.88;;;;;;;5.84;77.29;100775.40;2121680;83;28872;-68
2022/12/04 09:40:27;;;;;;;73.72;40.20;;;;;;;5.97;76.91;100775.11;2144483;83;31070;-67
2022/12/04 09:43:48;;;;;;;67.90;39.40;;;;;;;6.08;77.00;100781.11;2144331;83;33780;-68
2022/12/04 09:46:55;;;;;;;68.02;41.18;;;;;;;6.23;76.80;100783.41;2144566;83;29035;-68
2022/12/04 09:50:05;;;;;;;70.92;40.73;;;;;;;6.35;76.98;100781.36;2143946;83;28311;-68
2022/12/04 09:53:11;;;;;;;67.35;38.88;;;;;;;6.54;77.14;100777.33;2168282;81;28082;-68
2022/12/04 09:56:16;;;;;;;72.40;40.43;;;;;;;6.74;76.87;100775.95;2182019;81;31019;-67
2022/12/04 09:59:24;;;;;;;47.67;28.50;;;;;;;6.88;76.04;100772.91;2181993;81;33942;-66
2022/12/04 10:02:38;;;;;;;67.05;38.50;;;;;;;6.95;76.20;100764.32;2181473;81;29203;-66
2022/12/04 10:06:22;;;;;;;63.00;37.38;;;;;;;7.03;76.14;100762.30;2181367;81;27806;-69
2022/12/04 10:09:37;;;;;;;62.35;36.05;;;;;;;7.05;75.82;100756.48;2181873;81;29020;-65
2022/12/04 10:13:01;;;;;;;;;;;;;;;7.04;74.66;100757.84;2184457;81;31819;-65
2022/12/04 10:16:29;;;;;;;56.63;33.70;;;;;;;7.04;74.88;100751.17;2181525;81;33378;-68
2022/12/04 10:19:55;;;;;;;55.43;34.00;;;;;;;7.03;75.13;100747.66;2181359;81;29683;-65
2022/12/04 10:23:07;;;;;;;41.75;24.15;;;;;;;7.05;75.33;100744.49;2154174;81;36798;-65
2022/12/04 10:26:14;;;;;;;54.58;32.95;;;;;;;7.09;75.17;100740.84;2181777;81;28662;-67
2022/12/04 10:29:23;;;;;;;48.10;30.70;;;;;;;7.14;74.90;100739.36;2182107;81;30487;-65
2022/12/04 10:32:34;;;;;;;51.83;31.95;;;;;;;7.14;74.63;100737.56;2180799;81;34185;-67
2022/12/04 10:35:44;;;;;;;54.85;32.00;;;;;;;7.15;74.17;100741.97;2177596;81;31195;-67
2022/12/04 10:39:04;;;;;;;57.38;33.42;;;;;;;7.18;74.33;100740.14;2175821;81;27654;-66
2022/12/04 10:43:10;;;;;;;51.92;31.87;;;;;;;7.19;74.34;100738.78;2176581;81;28692;-67
2022/12/04 10:46:22;;;;;;;52.80;29.92;;;;;;;7.20;73.86;100728.98;2164435;81;32342;-66
2022/12/04 10:49:27;;;;;;;49.08;28.77;;;;;;;7.24;74.37;100726.18;2177323;81;34328;-65
2022/12/04 10:52:28;;;;;;;53.68;30.65;;;;;;;7.35;74.37;100733.02;2178067;81;29032;-65
2022/12/04 10:55:37;;;;;;;52.53;31.93;;;;;;;7.44;74.26;100730.95;2178159;81;28260;-66
2022/12/04 10:59:04;;;;;;;49.95;31.17;;;;;;;7.52;73.87;100719.16;2167001;81;27665;-67
2022/12/04 11:02:47;;;;;;;;;;;;;;;;;;;;;
2022/12/04 11:06:00;;;;;;;46.92;28.50;;;;;;;7.66;73.32;100716.95;2095949;84;29244;-66
2022/12/04 11:09:22;;;;;;;49.05;28.73;;;;;;;7.67;72.57;100717.84;2116045;84;29175;-68
2022/12/04 11:12:23;;;;;;;46.95;27.75;;;;;;;7.69;73.09;100714.19;2116036;84;27959;-65
2022/12/04 11:15:25;;;;;;;47.03;27.27;;;;;;;7.72;72.92;100707.87;2116137;84;28631;-65
2022/12/04 11:18:33;;;;;;;53.75;30.55;;;;;;;7.73;72.62;100706.52;2115949;84;31450;-64
2022/12/04 11:21:37;;;;;;;48.23;28.47;;;;;;;7.75;72.88;100703.79;2101657;82;32995;-65
2022/12/04 11:24:41;;;;;;;49.50;29.23;;;;;;;7.77;72.65;100693.09;2079356;85;30304;-66
2022/12/04 11:27:47;;;;;;;44.13;26.48;;;;;;;7.80;72.82;100696.97;2043261;87;27776;-66
2022/12/04 11:30:53;;;;;;;42.23;26.75;;;;;;;7.80;72.16;100692.52;2077723;85;28687;-66
2022/12/04 11:34:04;;;;;;;49.38;27.58;;;;;;;7.81;72.14;100688.05;2042067;86;31867;-67
2022/12/04 11:37:23;;;;;;;44.30;25.68;;;;;;;7.80;71.89;100682.30;2066727;86;33837;-67
2022/12/04 11:40:28;;;;;;;47.78;26.48;;;;;;;7.79;72.08;100683.22;2115314;83;29425;-67
2022/12/04 11:43:32;;;;;;;40.43;26.12;;;;;;;7.78;71.90;100681.03;2121652;83;27594;-65
2022/12/04 11:46:34;;;;;;;40.95;25.08;;;;;;;7.77;72.00;100679.76;2121483;83;29924;-66
2022/12/04 11:49:35;;;;;;;49.10;28.32;;;;;;;7.72;71.66;100671.44;2106114;84;31474;-64
2022/12/04 11:53:08;;;;;;;46.08;27.15;;;;;;;7.66;71.75;100664.95;2119807;83;33972;-67
2022/12/04 11:56:36;;;;;;;44.00;27.25;;;;;;;7.59;71.74;100667.41;2119581;83;29172;-66
2022/12/04 11:59:48;;;;;;;49.18;28.23;;;;;;;7.56;72.02;100677.69;2142189;83;27780;-65
2022/12/04 12:03:07;;;;;;;51.05;30.55;;;;;;;7.53;72.19;100678.26;2142526;82;28688;-66
2022/12/04 12:06:36;;;;;;;54.50;33.98;;;;;;;7.48;72.19;100670.41;2141740;83;31178;-64
2022/12/04 12:09:55;;;;;;;57.85;33.33;;;;;;;7.41;72.25;100674.17;2141955;83;35214;-64
2022/12/04 12:13:22;;;;;;;53.10;33.00;;;;;;;7.33;72.52;100677.07;2069364;86;29372;-64
2022/12/04 12:17:05;;;;;;;54.35;31.93;;;;;;;7.26;72.37;100671.52;2040893;87;27750;-63
2022/12/04 12:20:17;;;;;;;53.05;33.33;;;;;;;7.20;72.56;100667.70;2040637;87;30007;-67
2022/12/04 12:23:42;;;;;;;49.30;30.95;;;;;;;7.10;72.66;100663.98;2088280;85;31028;-65
2022/12/04 12:27:46;;;;;;;52.03;31.62;;;;;;;7.01;72.42;100675.37;2088045;85;37659;-64
2022/12/04 12:31:11;;;;;;;52.75;31.35;;;;;;;6.88;72.66;100678.83;2069960;86;30356;-66
2022/12/04 12:34:43;;;;;;;54.90;33.18;;;;;;;6.74;72.78;100674.77;1995605;89;27830;-64
2022/12/04 12:37:53;;;;;;;48.45;30.27;;;;;;;6.65;72.92;100685.66;1995729;89;28795;-63
2022/12/04 12:41:11;;;;;;;54.95;33.25;;;;;;;6.57;73.05;100687.67;1996107;89;31867;-65
2022/12/04 12:44:26;;;;;;;55.23;32.67;;;;;;;6.50;73.16;100686.48;1995460;89;32776;-63
2022/12/04 12:47:30;;;;;;;;;;;;;;;6.45;73.29;100684.87;1998423;89;29124;-65
2022/12/04 12:51:00;;;;;;;56.60;33.55;;;;;;;6.40;73.45;100686.33;1975063;89;27723;-67
2022/12/04 12:54:40;;;;;;;58.78;32.85;;;;;;;6.38;73.66;100687.67;1991333;88;28686;-66
2022/12/04 12:57:59;;;;;;;58.20;32.73;;;;;;;6.39;73.71;100696.08;2006627;88;31834;-65
2022/12/04 13:01:26;;;;;;;55.60;31.85;;;;;;;6.36;73.80;100694.85;1983498;89;32806;-65
2022/12/04 13:04:41;;;;;;;59.15;35.10;;;;;;;6.33;73.80;100691.37;1946009;91;29100;-64
2022/12/04 13:07:59;;;;;;;70.87;42.65;;;;;;;6.26;73.93;100691.13;1978158;90;27938;-63
2022/12/04 13:11:11;;;;;;;62.35;36.05;;;;;;;6.24;74.12;100692.48;1992167;87;29890;-66
2022/12/04 13:14:13;;;;;;;58.80;34.00;;;;;;;6.19;74.18;100681.96;2111343;84;31466;-65
2022/12/04 13:17:26;;;;;;;59.60;35.60;;;;;;;6.15;74.25;100674.11;2075364;85;33707;-64
2022/12/04 13:20:35;;;;;;;54.35;33.53;;;;;;;6.09;74.24;100672.48;2108681;84;29791;-63
2022/12/04 13:24:16;;;;;;;54.53;32.33;;;;;;;6.05;74.40;100668.14;2075261;85;27772;-64
2022/12/04 13:27:58;;;;;;;64.85;35.78;;;;;;;6.00;74.47;100662.05;2076623;85;29089;-65
2022/12/04 13:31:39;;;;;;;57.05;37.35;;;;;;;5.90;74.59;100662.27;2076172;85;46432;-65
2022/12/04 13:34:53;;;;;;;54.03;31.62;;;;;;;5.83;74.75;100663.78;2076349;85;34048;-65
2022/12/04 13:38:31;;;;;;;60.55;37.73;;;;;;;5.75;74.82;100656.84;2135152;83;30204;-63
2022/12/04 13:41:36;;;;;;;50.58;31.02;;;;;;;5.70;74.85;100661.86;2143009;83;27676;-64
2022/12/04 13:44:39;;;;;;;49.93;30.20;;;;;;;5.62;74.93;100664.27;2143396;83;28671;-63
2022/12/04 13:47:41;;;;;;;54.73;32.35;;;;;;;5.54;75.05;100660.03;2142868;83;31989;-64
2022/12/04 13:50:42;;;;;;;51.45;32.15;;;;;;;5.46;75.10;100654.89;2136685;81;33319;-64
2022/12/04 13:53:44;;;;;;;53.80;31.85;;;;;;;5.39;75.23;100659.91;2105148;84;29401;-66
2022/12/04 13:56:53;;;;;;;55.67;32.83;;;;;;;5.33;75.33;100655.14;2105258;84;27645;-65
2022/12/04 14:00:09;;;;;;;50.28;30.90;;;;;;;5.26;75.47;100649.56;2104744;83;29360;-63
2022/12/04 14:03:36;;;;;;;60.78;33.98;;;;;;;5.18;75.56;100647.52;2103459;84;31033;-64
2022/12/04 14:06:41;;;;;;;50.43;30.85;;;;;;;5.09;75.58;100650.37;2104920;83;33328;-63
2022/12/04 14:09:48;;;;;;;54.10;34.27;;;;;;;4.99;75.84;100651.02;2105213;84;30252;-63
2022/12/04 14:13:01;;;;;;;59.10;34.40;;;;;;;4.92;75.78;100661.34;2105151;84;27709;-65
2022/12/04 14:16:08;;;;;;;56.88;33.67;;;;;;;4.85;75.96;100665.90;2105160;83;28690;-66
2022/12/04 14:19:14;;;;;;;57.60;34.53;;;;;;;4.79;76.32;100676.66;2104937;83;31102;-65
2022/12/04 14:22:37;;;;;;;62.38;35.68;;;;;;;4.70;76.30;100680.36;2160614;81;34163;-65
2022/12/04 14:25:40;;;;;;;58.42;34.40;;;;;;;4.62;76.37;100687.14;2177439;81;29691;-67
2022/12/04 14:28:42;;;;;;;54.18;32.53;;;;;;;4.54;76.68;100685.96;2177876;81;27714;-65
2022/12/04 14:31:44;;;;;;;58.23;33.65;;;;;;;4.46;76.99;100682.56;2162598;81;28657;-66
2022/12/04 14:34:47;;;;;;;59.30;35.43;;;;;;;4.37;77.18;100687.58;2162599;81;31107;-67
2022/12/04 14:38:03;;;;;;;58.65;34.53;;;;;;;4.30;76.85;100688.60;2162159;82;34306;-65